sensor_id;sensor_type;location;lat;lon;timestamp;P1;durP1;ratioP1;P2;durP2;ratioP2
25553;SDS011;13446;50.926;5.332;2024-01-27T00:01:59;17.75;;;5.80;;
25553;SDS011;13446;50.926;5.332;2024-01-27T00:04:25;24.15;;;7.07;;
25553;SDS011;13446;50.926;5.332;2024-01-27T00:06:51;26.60;;;6.63;;
25553;SDS011;13446;50.926;5.332;2024-01-27T00:09:17;27.42;;;7.30;;
25553;SDS011;13446;50.926;5.332;2024-01-27T00:11:43;25.80;;;6.60;;
25553;SDS011;13446;50.926;5.332;2024-01-27T00:14:09;27.10;;;6.53;;
25553;SDS011;13446;50.926;5.332;2024-01-27T00:16:35;28.90;;;6.38;;
25553;SDS011;13446;50.926;5.332;2024-01-27T00:19:00;28.27;;;6.30;;
25553;SDS011;13446;50.926;5.332;2024-01-27T00:21:26;28.83;;;6.43;;
25553;SDS011;13446;50.926;5.332;2024-01-27T00:23:52;33.90;;;5.70;;
25553;SDS011;13446;50.926;5.332;2024-01-27T00:26:17;30.98;;;6.57;;
25553;SDS011;13446;50.926;5.332;2024-01-27T00:28:43;33.47;;;6.30;;
25553;SDS011;13446;50.926;5.332;2024-01-27T00:31:09;22.45;;;5.97;;
25553;SDS011;13446;50.926;5.332;2024-01-27T00:33:35;19.40;;;5.00;;
25553;SDS011;13446;50.926;5.332;2024-01-27T00:36:01;20.63;;;5.47;;
25553;SDS011;13446;50.926;5.332;2024-01-27T00:38:28;18.80;;;5.45;;
25553;SDS011;13446;50.926;5.332;2024-01-27T00:40:53;21.00;;;4.80;;
25553;SDS011;13446;50.926;5.332;2024-01-27T00:43:19;17.90;;;5.38;;
25553;SDS011;13446;50.926;5.332;2024-01-27T00:45:45;22.60;;;5.47;;
25553;SDS011;13446;50.926;5.332;2024-01-27T00:48:10;19.02;;;6.28;;
25553;SDS011;13446;50.926;5.332;2024-01-27T00:50:38;14.18;;;4.95;;
25553;SDS011;13446;50.926;5.332;2024-01-27T00:53:03;20.80;;;5.90;;
25553;SDS011;13446;50.926;5.332;2024-01-27T00:55:29;20.88;;;5.53;;
25553;SDS011;13446;50.926;5.332;2024-01-27T00:57:54;23.52;;;5.65;;
25553;SDS011;13446;50.926;5.332;2024-01-27T01:00:20;18.15;;;4.95;;
25553;SDS011;13446;50.926;5.332;2024-01-27T01:02:46;24.90;;;5.70;;
25553;SDS011;13446;50.926;5.332;2024-01-27T01:05:12;26.40;;;5.38;;
25553;SDS011;13446;50.926;5.332;2024-01-27T01:07:38;24.13;;;4.78;;
25553;SDS011;13446;50.926;5.332;2024-01-27T01:10:04;25.60;;;6.22;;
25553;SDS011;13446;50.926;5.332;2024-01-27T01:12:31;27.48;;;6.13;;
25553;SDS011;13446;50.926;5.332;2024-01-27T01:14:58;24.70;;;5.00;;
25553;SDS011;13446;50.926;5.332;2024-01-27T01:17:23;23.85;;;5.22;;
25553;SDS011;13446;50.926;5.332;2024-01-27T01:19:49;17.60;;;4.93;;
25553;SDS011;13446;50.926;5.332;2024-01-27T01:22:15;21.00;;;5.18;;
25553;SDS011;13446;50.926;5.332;2024-01-27T01:24:41;25.58;;;5.18;;
25553;SDS011;13446;50.926;5.332;2024-01-27T01:27:07;29.08;;;5.78;;
25553;SDS011;13446;50.926;5.332;2024-01-27T01:29:33;19.58;;;5.45;;
25553;SDS011;13446;50.926;5.332;2024-01-27T01:31:59;25.20;;;5.20;;
25553;SDS011;13446;50.926;5.332;2024-01-27T01:34:28;28.08;;;5.10;;
25553;SDS011;13446;50.926;5.332;2024-01-27T01:36:54;27.20;;;5.13;;
25553;SDS011;13446;50.926;5.332;2024-01-27T01:39:19;23.13;;;5.25;;
25553;SDS011;13446;50.926;5.332;2024-01-27T01:41:45;26.15;;;5.53;;
25553;SDS011;13446;50.926;5.332;2024-01-27T01:44:11;20.63;;;5.28;;
25553;SDS011;13446;50.926;5.332;2024-01-27T01:46:36;20.40;;;5.28;;
25553;SDS011;13446;50.926;5.332;2024-01-27T01:49:02;23.27;;;5.40;;
25553;SDS011;13446;50.926;5.332;2024-01-27T01:51:28;22.75;;;5.40;;
25553;SDS011;13446;50.926;5.332;2024-01-27T01:53:56;20.20;;;5.60;;
25553;SDS011;13446;50.926;5.332;2024-01-27T01:56:23;27.60;;;5.15;;
25553;SDS011;13446;50.926;5.332;2024-01-27T01:58:49;30.52;;;6.22;;
25553;SDS011;13446;50.926;5.332;2024-01-27T02:01:18;23.00;;;6.10;;
25553;SDS011;13446;50.926;5.332;2024-01-27T02:03:51;13.97;;;5.20;;
25553;SDS011;13446;50.926;5.332;2024-01-27T02:06:20;15.52;;;4.78;;
25553;SDS011;13446;50.926;5.332;2024-01-27T02:08:46;27.60;;;5.78;;
25553;SDS011;13446;50.926;5.332;2024-01-27T02:11:12;25.48;;;4.53;;
25553;SDS011;13446;50.926;5.332;2024-01-27T02:13:38;28.13;;;5.65;;
25553;SDS011;13446;50.926;5.332;2024-01-27T02:16:04;24.45;;;4.90;;
25553;SDS011;13446;50.926;5.332;2024-01-27T02:18:30;23.92;;;5.38;;
25553;SDS011;13446;50.926;5.332;2024-01-27T02:20:56;20.00;;;4.70;;
25553;SDS011;13446;50.926;5.332;2024-01-27T02:23:22;19.08;;;5.43;;
25553;SDS011;13446;50.926;5.332;2024-01-27T02:25:47;23.13;;;5.35;;
25553;SDS011;13446;50.926;5.332;2024-01-27T02:28:15;16.85;;;4.97;;
25553;SDS011;13446;50.926;5.332;2024-01-27T02:30:40;17.35;;;4.70;;
25553;SDS011;13446;50.926;5.332;2024-01-27T02:33:06;23.48;;;4.82;;
25553;SDS011;13446;50.926;5.332;2024-01-27T02:35:32;26.90;;;5.10;;
25553;SDS011;13446;50.926;5.332;2024-01-27T02:37:58;19.20;;;4.63;;
25553;SDS011;13446;50.926;5.332;2024-01-27T02:40:23;24.23;;;5.40;;
25553;SDS011;13446;50.926;5.332;2024-01-27T02:42:49;25.92;;;5.57;;
25553;SDS011;13446;50.926;5.332;2024-01-27T02:45:15;24.35;;;5.38;;
25553;SDS011;13446;50.926;5.332;2024-01-27T02:47:40;26.25;;;5.25;;
25553;SDS011;13446;50.926;5.332;2024-01-27T02:50:07;21.08;;;5.38;;
25553;SDS011;13446;50.926;5.332;2024-01-27T02:52:34;22.83;;;5.43;;
25553;SDS011;13446;50.926;5.332;2024-01-27T02:54:59;23.05;;;5.68;;
25553;SDS011;13446;50.926;5.332;2024-01-27T02:57:25;24.33;;;5.10;;
25553;SDS011;13446;50.926;5.332;2024-01-27T02:59:51;22.40;;;5.70;;
25553;SDS011;13446;50.926;5.332;2024-01-27T03:02:17;23.23;;;5.80;;
25553;SDS011;13446;50.926;5.332;2024-01-27T03:04:42;16.65;;;5.15;;
25553;SDS011;13446;50.926;5.332;2024-01-27T03:07:08;24.42;;;5.75;;
25553;SDS011;13446;50.926;5.332;2024-01-27T03:09:34;30.70;;;6.00;;
25553;SDS011;13446;50.926;5.332;2024-01-27T03:12:00;30.20;;;6.47;;
25553;SDS011;13446;50.926;5.332;2024-01-27T03:14:25;20.70;;;5.88;;
25553;SDS011;13446;50.926;5.332;2024-01-27T03:16:51;26.65;;;5.82;;
25553;SDS011;13446;50.926;5.332;2024-01-27T03:19:17;22.73;;;5.63;;
25553;SDS011;13446;50.926;5.332;2024-01-27T03:21:43;24.13;;;6.18;;
25553;SDS011;13446;50.926;5.332;2024-01-27T03:24:10;21.45;;;6.18;;
25553;SDS011;13446;50.926;5.332;2024-01-27T03:26:36;37.78;;;5.88;;
25553;SDS011;13446;50.926;5.332;2024-01-27T03:29:01;22.77;;;6.72;;
25553;SDS011;13446;50.926;5.332;2024-01-27T03:31:30;24.77;;;6.00;;
25553;SDS011;13446;50.926;5.332;2024-01-27T03:34:00;23.77;;;6.68;;
25553;SDS011;13446;50.926;5.332;2024-01-27T03:36:26;29.67;;;5.82;;
25553;SDS011;13446;50.926;5.332;2024-01-27T03:38:52;30.95;;;6.38;;
25553;SDS011;13446;50.926;5.332;2024-01-27T03:41:18;21.75;;;7.18;;
25553;SDS011;13446;50.926;5.332;2024-01-27T03:43:44;31.08;;;7.03;;
25553;SDS011;13446;50.926;5.332;2024-01-27T03:46:10;27.73;;;6.55;;
25553;SDS011;13446;50.926;5.332;2024-01-27T03:48:36;27.98;;;6.82;;
25553;SDS011;13446;50.926;5.332;2024-01-27T03:51:02;24.75;;;6.38;;
25553;SDS011;13446;50.926;5.332;2024-01-27T03:53:28;26.60;;;6.90;;
25553;SDS011;13446;50.926;5.332;2024-01-27T03:55:53;28.05;;;7.45;;
25553;SDS011;13446;50.926;5.332;2024-01-27T03:58:23;22.87;;;5.80;;
25553;SDS011;13446;50.926;5.332;2024-01-27T04:00:49;23.77;;;6.57;;
25553;SDS011;13446;50.926;5.332;2024-01-27T04:03:16;19.20;;;6.28;;
25553;SDS011;13446;50.926;5.332;2024-01-27T04:05:42;28.52;;;6.63;;
25553;SDS011;13446;50.926;5.332;2024-01-27T04:08:08;25.05;;;6.93;;
25553;SDS011;13446;50.926;5.332;2024-01-27T04:10:34;25.85;;;7.05;;
25553;SDS011;13446;50.926;5.332;2024-01-27T04:13:01;24.55;;;6.50;;
25553;SDS011;13446;50.926;5.332;2024-01-27T04:15:26;27.88;;;7.05;;
25553;SDS011;13446;50.926;5.332;2024-01-27T04:17:52;27.75;;;7.72;;
25553;SDS011;13446;50.926;5.332;2024-01-27T04:20:20;30.38;;;7.22;;
25553;SDS011;13446;50.926;5.332;2024-01-27T04:22:45;27.52;;;7.50;;
25553;SDS011;13446;50.926;5.332;2024-01-27T04:25:11;29.25;;;6.88;;
25553;SDS011;13446;50.926;5.332;2024-01-27T04:27:38;23.92;;;6.40;;
25553;SDS011;13446;50.926;5.332;2024-01-27T04:30:08;33.17;;;7.03;;
25553;SDS011;13446;50.926;5.332;2024-01-27T04:32:35;31.50;;;7.18;;
25553;SDS011;13446;50.926;5.332;2024-01-27T04:35:01;28.05;;;7.15;;
25553;SDS011;13446;50.926;5.332;2024-01-27T04:37:29;27.17;;;7.00;;
25553;SDS011;13446;50.926;5.332;2024-01-27T04:39:55;31.35;;;7.32;;
25553;SDS011;13446;50.926;5.332;2024-01-27T04:42:20;20.02;;;7.35;;
25553;SDS011;13446;50.926;5.332;2024-01-27T04:44:46;25.85;;;7.50;;
25553;SDS011;13446;50.926;5.332;2024-01-27T04:47:12;31.05;;;7.65;;
25553;SDS011;13446;50.926;5.332;2024-01-27T04:49:38;26.55;;;7.38;;
25553;SDS011;13446;50.926;5.332;2024-01-27T04:52:03;33.90;;;8.15;;
25553;SDS011;13446;50.926;5.332;2024-01-27T04:54:29;33.45;;;8.05;;
25553;SDS011;13446;50.926;5.332;2024-01-27T04:56:55;21.25;;;7.07;;
25553;SDS011;13446;50.926;5.332;2024-01-27T04:59:21;24.02;;;8.07;;
25553;SDS011;13446;50.926;5.332;2024-01-27T05:01:47;30.02;;;7.70;;
25553;SDS011;13446;50.926;5.332;2024-01-27T05:04:13;24.80;;;7.45;;
25553;SDS011;13446;50.926;5.332;2024-01-27T05:06:43;22.30;;;7.15;;
25553;SDS011;13446;50.926;5.332;2024-01-27T05:11:35;25.02;;;6.95;;
25553;SDS011;13446;50.926;5.332;2024-01-27T05:14:01;23.75;;;7.30;;
25553;SDS011;13446;50.926;5.332;2024-01-27T05:16:27;33.42;;;6.97;;
25553;SDS011;13446;50.926;5.332;2024-01-27T05:18:55;33.42;;;9.23;;
25553;SDS011;13446;50.926;5.332;2024-01-27T05:21:21;32.35;;;7.70;;
25553;SDS011;13446;50.926;5.332;2024-01-27T05:23:47;32.28;;;7.38;;
25553;SDS011;13446;50.926;5.332;2024-01-27T05:26:13;31.15;;;8.35;;
25553;SDS011;13446;50.926;5.332;2024-01-27T05:28:39;26.92;;;8.00;;
25553;SDS011;13446;50.926;5.332;2024-01-27T05:31:08;30.30;;;7.80;;
25553;SDS011;13446;50.926;5.332;2024-01-27T05:33:37;25.58;;;7.40;;
25553;SDS011;13446;50.926;5.332;2024-01-27T05:36:04;36.65;;;7.60;;
25553;SDS011;13446;50.926;5.332;2024-01-27T05:38:30;30.92;;;8.43;;
25553;SDS011;13446;50.926;5.332;2024-01-27T05:41:06;21.75;;;7.22;;
25553;SDS011;13446;50.926;5.332;2024-01-27T05:43:32;28.42;;;7.95;;
25553;SDS011;13446;50.926;5.332;2024-01-27T05:45:57;26.27;;;7.68;;
25553;SDS011;13446;50.926;5.332;2024-01-27T05:48:23;23.27;;;7.18;;
25553;SDS011;13446;50.926;5.332;2024-01-27T05:50:56;29.70;;;7.80;;
25553;SDS011;13446;50.926;5.332;2024-01-27T05:53:23;29.77;;;8.38;;
25553;SDS011;13446;50.926;5.332;2024-01-27T05:55:48;34.72;;;8.15;;
25553;SDS011;13446;50.926;5.332;2024-01-27T05:58:14;25.85;;;7.90;;
25553;SDS011;13446;50.926;5.332;2024-01-27T06:00:42;28.65;;;8.00;;
25553;SDS011;13446;50.926;5.332;2024-01-27T06:03:09;32.83;;;8.27;;
25553;SDS011;13446;50.926;5.332;2024-01-27T06:05:35;43.75;;;8.65;;
25553;SDS011;13446;50.926;5.332;2024-01-27T06:08:01;28.30;;;8.38;;
25553;SDS011;13446;50.926;5.332;2024-01-27T06:10:27;33.72;;;8.40;;
25553;SDS011;13446;50.926;5.332;2024-01-27T06:12:52;30.52;;;9.25;;
25553;SDS011;13446;50.926;5.332;2024-01-27T06:15:18;28.90;;;9.15;;
25553;SDS011;13446;50.926;5.332;2024-01-27T06:17:45;29.08;;;8.38;;
25553;SDS011;13446;50.926;5.332;2024-01-27T06:20:12;33.90;;;8.52;;
25553;SDS011;13446;50.926;5.332;2024-01-27T06:22:38;30.60;;;8.60;;
25553;SDS011;13446;50.926;5.332;2024-01-27T06:25:04;37.80;;;9.70;;
25553;SDS011;13446;50.926;5.332;2024-01-27T06:27:30;39.33;;;9.13;;
25553;SDS011;13446;50.926;5.332;2024-01-27T06:29:55;29.13;;;8.52;;
25553;SDS011;13446;50.926;5.332;2024-01-27T06:32:21;24.20;;;8.40;;
25553;SDS011;13446;50.926;5.332;2024-01-27T06:34:50;32.67;;;8.75;;
25553;SDS011;13446;50.926;5.332;2024-01-27T06:37:15;32.35;;;8.85;;
25553;SDS011;13446;50.926;5.332;2024-01-27T06:39:41;36.08;;;8.50;;
25553;SDS011;13446;50.926;5.332;2024-01-27T06:42:07;38.22;;;8.90;;
25553;SDS011;13446;50.926;5.332;2024-01-27T06:44:32;36.30;;;8.70;;
25553;SDS011;13446;50.926;5.332;2024-01-27T06:46:58;35.13;;;7.90;;
25553;SDS011;13446;50.926;5.332;2024-01-27T06:49:24;27.08;;;7.95;;
25553;SDS011;13446;50.926;5.332;2024-01-27T06:51:49;29.27;;;7.75;;
25553;SDS011;13446;50.926;5.332;2024-01-27T06:54:15;23.42;;;7.43;;
25553;SDS011;13446;50.926;5.332;2024-01-27T06:56:41;27.13;;;7.57;;
25553;SDS011;13446;50.926;5.332;2024-01-27T06:59:07;29.50;;;8.02;;
25553;SDS011;13446;50.926;5.332;2024-01-27T07:01:34;29.35;;;7.60;;
25553;SDS011;13446;50.926;5.332;2024-01-27T07:03:59;25.08;;;7.30;;
25553;SDS011;13446;50.926;5.332;2024-01-27T07:06:25;22.20;;;7.70;;
25553;SDS011;13446;50.926;5.332;2024-01-27T07:08:51;33.47;;;7.72;;
25553;SDS011;13446;50.926;5.332;2024-01-27T07:11:16;31.25;;;7.10;;
25553;SDS011;13446;50.926;5.332;2024-01-27T07:13:42;40.17;;;8.40;;
25553;SDS011;13446;50.926;5.332;2024-01-27T07:16:09;23.63;;;6.78;;
25553;SDS011;13446;50.926;5.332;2024-01-27T07:18:34;29.77;;;7.35;;
25553;SDS011;13446;50.926;5.332;2024-01-27T07:21:00;24.55;;;6.78;;
25553;SDS011;13446;50.926;5.332;2024-01-27T07:23:28;25.02;;;7.32;;
25553;SDS011;13446;50.926;5.332;2024-01-27T07:25:55;30.08;;;6.85;;
25553;SDS011;13446;50.926;5.332;2024-01-27T07:28:22;27.88;;;6.65;;
25553;SDS011;13446;50.926;5.332;2024-01-27T07:30:48;27.10;;;7.18;;
25553;SDS011;13446;50.926;5.332;2024-01-27T07:33:13;22.67;;;6.57;;
25553;SDS011;13446;50.926;5.332;2024-01-27T07:35:39;24.67;;;5.97;;
25553;SDS011;13446;50.926;5.332;2024-01-27T07:38:06;26.13;;;7.38;;
25553;SDS011;13446;50.926;5.332;2024-01-27T07:40:33;31.50;;;7.15;;
25553;SDS011;13446;50.926;5.332;2024-01-27T07:42:59;24.15;;;6.63;;
25553;SDS011;13446;50.926;5.332;2024-01-27T07:45:24;18.73;;;6.93;;
25553;SDS011;13446;50.926;5.332;2024-01-27T07:47:50;21.63;;;6.78;;
25553;SDS011;13446;50.926;5.332;2024-01-27T07:50:16;25.75;;;6.57;;
25553;SDS011;13446;50.926;5.332;2024-01-27T07:52:42;22.55;;;7.15;;
25553;SDS011;13446;50.926;5.332;2024-01-27T07:55:07;22.65;;;6.80;;
25553;SDS011;13446;50.926;5.332;2024-01-27T07:57:34;20.95;;;5.45;;
25553;SDS011;13446;50.926;5.332;2024-01-27T08:00:00;18.55;;;6.55;;
25553;SDS011;13446;50.926;5.332;2024-01-27T08:02:26;28.40;;;6.55;;
25553;SDS011;13446;50.926;5.332;2024-01-27T08:04:51;22.58;;;6.45;;
25553;SDS011;13446;50.926;5.332;2024-01-27T08:07:17;25.08;;;6.35;;
25553;SDS011;13446;50.926;5.332;2024-01-27T08:09:43;18.48;;;5.78;;
25553;SDS011;13446;50.926;5.332;2024-01-27T08:12:08;26.25;;;6.00;;
25553;SDS011;13446;50.926;5.332;2024-01-27T08:14:34;17.65;;;5.82;;
25553;SDS011;13446;50.926;5.332;2024-01-27T08:17:00;20.30;;;6.55;;
25553;SDS011;13446;50.926;5.332;2024-01-27T08:19:28;21.42;;;5.82;;
25553;SDS011;13446;50.926;5.332;2024-01-27T08:21:54;19.55;;;6.05;;
25553;SDS011;13446;50.926;5.332;2024-01-27T08:24:21;21.88;;;6.53;;
25553;SDS011;13446;50.926;5.332;2024-01-27T08:26:49;24.92;;;5.75;;
25553;SDS011;13446;50.926;5.332;2024-01-27T08:29:15;28.42;;;6.32;;
25553;SDS011;13446;50.926;5.332;2024-01-27T08:31:41;17.48;;;5.32;;
25553;SDS011;13446;50.926;5.332;2024-01-27T08:34:07;19.02;;;4.85;;
25553;SDS011;13446;50.926;5.332;2024-01-27T08:36:33;21.70;;;5.97;;
25553;SDS011;13446;50.926;5.332;2024-01-27T08:39:02;14.68;;;5.25;;
25553;SDS011;13446;50.926;5.332;2024-01-27T08:41:28;20.67;;;4.50;;
25553;SDS011;13446;50.926;5.332;2024-01-27T08:43:54;16.45;;;4.40;;
25553;SDS011;13446;50.926;5.332;2024-01-27T08:46:19;13.57;;;4.40;;
25553;SDS011;13446;50.926;5.332;2024-01-27T08:48:47;12.30;;;4.47;;
25553;SDS011;13446;50.926;5.332;2024-01-27T08:51:13;13.32;;;4.47;;
25553;SDS011;13446;50.926;5.332;2024-01-27T08:53:41;18.50;;;4.30;;
25553;SDS011;13446;50.926;5.332;2024-01-27T08:56:07;12.77;;;4.10;;
25553;SDS011;13446;50.926;5.332;2024-01-27T08:58:33;12.65;;;4.90;;
25553;SDS011;13446;50.926;5.332;2024-01-27T09:00:58;14.02;;;4.35;;
25553;SDS011;13446;50.926;5.332;2024-01-27T09:03:30;14.52;;;4.18;;
25553;SDS011;13446;50.926;5.332;2024-01-27T09:05:56;17.95;;;4.75;;
25553;SDS011;13446;50.926;5.332;2024-01-27T09:08:21;15.90;;;5.00;;
25553;SDS011;13446;50.926;5.332;2024-01-27T09:10:47;12.77;;;4.57;;
25553;SDS011;13446;50.926;5.332;2024-01-27T09:13:13;16.67;;;4.68;;
25553;SDS011;13446;50.926;5.332;2024-01-27T09:15:38;13.27;;;4.47;;
25553;SDS011;13446;50.926;5.332;2024-01-27T09:18:04;11.60;;;4.85;;
25553;SDS011;13446;50.926;5.332;2024-01-27T09:20:31;14.00;;;4.85;;
25553;SDS011;13446;50.926;5.332;2024-01-27T09:22:57;13.77;;;4.80;;
25553;SDS011;13446;50.926;5.332;2024-01-27T09:25:23;14.50;;;4.57;;
25553;SDS011;13446;50.926;5.332;2024-01-27T09:27:50;17.00;;;5.07;;
25553;SDS011;13446;50.926;5.332;2024-01-27T09:30:17;13.05;;;4.55;;
25553;SDS011;13446;50.926;5.332;2024-01-27T09:32:43;15.40;;;5.15;;
25553;SDS011;13446;50.926;5.332;2024-01-27T09:35:09;15.95;;;4.50;;
25553;SDS011;13446;50.926;5.332;2024-01-27T09:37:35;15.35;;;4.97;;
25553;SDS011;13446;50.926;5.332;2024-01-27T09:40:00;10.95;;;4.28;;
25553;SDS011;13446;50.926;5.332;2024-01-27T09:42:27;13.68;;;4.88;;
25553;SDS011;13446;50.926;5.332;2024-01-27T09:44:53;15.80;;;4.70;;
25553;SDS011;13446;50.926;5.332;2024-01-27T09:47:24;13.50;;;4.53;;
25553;SDS011;13446;50.926;5.332;2024-01-27T09:49:50;16.80;;;5.40;;
25553;SDS011;13446;50.926;5.332;2024-01-27T09:52:16;13.15;;;4.20;;
25553;SDS011;13446;50.926;5.332;2024-01-27T09:54:42;18.67;;;4.72;;
25553;SDS011;13446;50.926;5.332;2024-01-27T09:57:08;11.30;;;4.25;;
25553;SDS011;13446;50.926;5.332;2024-01-27T09:59:36;16.25;;;4.57;;
25553;SDS011;13446;50.926;5.332;2024-01-27T10:02:05;14.95;;;4.00;;
25553;SDS011;13446;50.926;5.332;2024-01-27T10:04:34;17.83;;;4.70;;
25553;SDS011;13446;50.926;5.332;2024-01-27T10:07:00;12.95;;;4.25;;
25553;SDS011;13446;50.926;5.332;2024-01-27T10:09:25;9.98;;;4.00;;
25553;SDS011;13446;50.926;5.332;2024-01-27T10:11:51;16.80;;;4.55;;
25553;SDS011;13446;50.926;5.332;2024-01-27T10:14:20;18.48;;;5.07;;
25553;SDS011;13446;50.926;5.332;2024-01-27T10:16:47;15.77;;;4.03;;
25553;SDS011;13446;50.926;5.332;2024-01-27T10:19:16;13.68;;;4.50;;
25553;SDS011;13446;50.926;5.332;2024-01-27T10:21:44;17.02;;;4.47;;
25553;SDS011;13446;50.926;5.332;2024-01-27T10:24:10;12.57;;;4.13;;
25553;SDS011;13446;50.926;5.332;2024-01-27T10:26:36;13.30;;;4.47;;
25553;SDS011;13446;50.926;5.332;2024-01-27T10:29:02;12.05;;;4.63;;
25553;SDS011;13446;50.926;5.332;2024-01-27T10:31:34;12.20;;;4.57;;
25553;SDS011;13446;50.926;5.332;2024-01-27T10:34:03;12.23;;;3.80;;
25553;SDS011;13446;50.926;5.332;2024-01-27T10:36:39;15.02;;;3.88;;
25553;SDS011;13446;50.926;5.332;2024-01-27T10:39:16;18.30;;;4.47;;
25553;SDS011;13446;50.926;5.332;2024-01-27T10:41:43;11.10;;;3.50;;
25553;SDS011;13446;50.926;5.332;2024-01-27T10:44:12;16.38;;;4.20;;
25553;SDS011;13446;50.926;5.332;2024-01-27T10:46:41;19.38;;;3.90;;
25553;SDS011;13446;50.926;5.332;2024-01-27T10:51:42;11.60;;;3.60;;
25553;SDS011;13446;50.926;5.332;2024-01-27T10:54:13;15.95;;;4.20;;
25553;SDS011;13446;50.926;5.332;2024-01-27T10:56:48;12.98;;;3.72;;
25553;SDS011;13446;50.926;5.332;2024-01-27T10:59:16;15.07;;;3.75;;
25553;SDS011;13446;50.926;5.332;2024-01-27T11:01:44;13.60;;;3.65;;
25553;SDS011;13446;50.926;5.332;2024-01-27T11:04:12;11.48;;;3.67;;
25553;SDS011;13446;50.926;5.332;2024-01-27T11:06:38;17.45;;;4.30;;
25553;SDS011;13446;50.926;5.332;2024-01-27T11:09:07;10.38;;;3.40;;
25553;SDS011;13446;50.926;5.332;2024-01-27T11:11:34;13.27;;;3.67;;
25553;SDS011;13446;50.926;5.332;2024-01-27T11:14:00;14.80;;;3.88;;
25553;SDS011;13446;50.926;5.332;2024-01-27T11:16:26;11.63;;;3.50;;
25553;SDS011;13446;50.926;5.332;2024-01-27T11:18:53;14.88;;;3.92;;
25553;SDS011;13446;50.926;5.332;2024-01-27T11:21:19;13.23;;;3.83;;
25553;SDS011;13446;50.926;5.332;2024-01-27T11:23:45;11.80;;;3.13;;
25553;SDS011;13446;50.926;5.332;2024-01-27T11:26:17;8.05;;;3.03;;
25553;SDS011;13446;50.926;5.332;2024-01-27T11:28:44;14.07;;;3.47;;
25553;SDS011;13446;50.926;5.332;2024-01-27T11:31:10;14.10;;;3.10;;
25553;SDS011;13446;50.926;5.332;2024-01-27T11:33:43;20.05;;;3.97;;
25553;SDS011;13446;50.926;5.332;2024-01-27T11:36:17;10.95;;;3.25;;
25553;SDS011;13446;50.926;5.332;2024-01-27T11:38:45;10.93;;;3.05;;
25553;SDS011;13446;50.926;5.332;2024-01-27T11:41:11;8.10;;;2.58;;
25553;SDS011;13446;50.926;5.332;2024-01-27T11:43:51;12.18;;;3.15;;
25553;SDS011;13446;50.926;5.332;2024-01-27T11:46:26;11.95;;;2.88;;
25553;SDS011;13446;50.926;5.332;2024-01-27T11:48:52;11.10;;;2.88;;
25553;SDS011;13446;50.926;5.332;2024-01-27T11:51:18;14.48;;;3.17;;
25553;SDS011;13446;50.926;5.332;2024-01-27T11:53:44;10.90;;;2.50;;
25553;SDS011;13446;50.926;5.332;2024-01-27T11:56:11;11.98;;;2.65;;
25553;SDS011;13446;50.926;5.332;2024-01-27T11:58:38;10.18;;;2.22;;
25553;SDS011;13446;50.926;5.332;2024-01-27T12:01:10;12.45;;;2.60;;
25553;SDS011;13446;50.926;5.332;2024-01-27T12:03:36;16.67;;;2.50;;
25553;SDS011;13446;50.926;5.332;2024-01-27T12:06:02;11.18;;;2.53;;
25553;SDS011;13446;50.926;5.332;2024-01-27T12:08:28;9.68;;;2.72;;
25553;SDS011;13446;50.926;5.332;2024-01-27T12:10:53;9.15;;;2.03;;
25553;SDS011;13446;50.926;5.332;2024-01-27T12:13:20;9.35;;;2.17;;
25553;SDS011;13446;50.926;5.332;2024-01-27T12:15:45;10.05;;;2.30;;
25553;SDS011;13446;50.926;5.332;2024-01-27T12:18:12;10.88;;;2.70;;
25553;SDS011;13446;50.926;5.332;2024-01-27T12:20:38;9.40;;;2.42;;
25553;SDS011;13446;50.926;5.332;2024-01-27T12:23:04;10.95;;;2.60;;
25553;SDS011;13446;50.926;5.332;2024-01-27T12:25:31;8.75;;;2.15;;
25553;SDS011;13446;50.926;5.332;2024-01-27T12:27:57;11.75;;;2.03;;
25553;SDS011;13446;50.926;5.332;2024-01-27T12:30:27;14.13;;;2.38;;
25553;SDS011;13446;50.926;5.332;2024-01-27T12:32:53;10.18;;;2.50;;
25553;SDS011;13446;50.926;5.332;2024-01-27T12:35:19;8.02;;;2.33;;
25553;SDS011;13446;50.926;5.332;2024-01-27T12:37:47;8.60;;;1.85;;
25553;SDS011;13446;50.926;5.332;2024-01-27T12:40:18;9.30;;;2.33;;
25553;SDS011;13446;50.926;5.332;2024-01-27T12:42:44;8.93;;;2.47;;
25553;SDS011;13446;50.926;5.332;2024-01-27T12:45:10;11.52;;;2.53;;
25553;SDS011;13446;50.926;5.332;2024-01-27T12:47:35;6.78;;;1.80;;
25553;SDS011;13446;50.926;5.332;2024-01-27T12:50:01;6.90;;;1.80;;
25553;SDS011;13446;50.926;5.332;2024-01-27T12:52:27;12.60;;;2.50;;
25553;SDS011;13446;50.926;5.332;2024-01-27T12:54:53;12.82;;;2.30;;
25553;SDS011;13446;50.926;5.332;2024-01-27T12:57:28;11.95;;;2.40;;
25553;SDS011;13446;50.926;5.332;2024-01-27T12:59:54;10.57;;;2.70;;
25553;SDS011;13446;50.926;5.332;2024-01-27T13:02:29;11.57;;;2.55;;
25553;SDS011;13446;50.926;5.332;2024-01-27T13:04:58;14.15;;;2.95;;
25553;SDS011;13446;50.926;5.332;2024-01-27T13:07:30;10.55;;;2.28;;
25553;SDS011;13446;50.926;5.332;2024-01-27T13:09:56;13.65;;;2.55;;
25553;SDS011;13446;50.926;5.332;2024-01-27T13:12:21;8.85;;;2.10;;
25553;SDS011;13446;50.926;5.332;2024-01-27T13:14:47;16.70;;;3.38;;
25553;SDS011;13446;50.926;5.332;2024-01-27T13:17:14;12.18;;;2.47;;
25553;SDS011;13446;50.926;5.332;2024-01-27T13:19:52;11.98;;;2.67;;
25553;SDS011;13446;50.926;5.332;2024-01-27T13:22:18;11.40;;;2.42;;
25553;SDS011;13446;50.926;5.332;2024-01-27T13:24:49;11.85;;;2.78;;
25553;SDS011;13446;50.926;5.332;2024-01-27T13:27:15;17.40;;;2.85;;
25553;SDS011;13446;50.926;5.332;2024-01-27T13:29:41;7.20;;;2.50;;
25553;SDS011;13446;50.926;5.332;2024-01-27T13:32:06;16.98;;;3.15;;
25553;SDS011;13446;50.926;5.332;2024-01-27T13:34:32;12.52;;;2.75;;
25553;SDS011;13446;50.926;5.332;2024-01-27T13:36:58;12.90;;;2.75;;
25553;SDS011;13446;50.926;5.332;2024-01-27T13:39:29;13.30;;;2.58;;
25553;SDS011;13446;50.926;5.332;2024-01-27T13:41:54;9.43;;;2.35;;
25553;SDS011;13446;50.926;5.332;2024-01-27T13:44:20;11.98;;;2.70;;
25553;SDS011;13446;50.926;5.332;2024-01-27T13:46:46;11.27;;;2.25;;
25553;SDS011;13446;50.926;5.332;2024-01-27T13:49:12;10.88;;;2.38;;
25553;SDS011;13446;50.926;5.332;2024-01-27T13:51:38;15.10;;;2.97;;
25553;SDS011;13446;50.926;5.332;2024-01-27T13:54:04;14.43;;;3.05;;
25553;SDS011;13446;50.926;5.332;2024-01-27T13:56:33;11.45;;;2.63;;
25553;SDS011;13446;50.926;5.332;2024-01-27T13:58:59;13.77;;;2.70;;
25553;SDS011;13446;50.926;5.332;2024-01-27T14:01:24;8.63;;;2.60;;
25553;SDS011;13446;50.926;5.332;2024-01-27T14:03:50;13.73;;;2.70;;
25553;SDS011;13446;50.926;5.332;2024-01-27T14:06:16;12.40;;;2.88;;
25553;SDS011;13446;50.926;5.332;2024-01-27T14:08:42;10.93;;;2.50;;
25553;SDS011;13446;50.926;5.332;2024-01-27T14:11:09;13.75;;;2.65;;
25553;SDS011;13446;50.926;5.332;2024-01-27T14:13:34;15.25;;;3.00;;
25553;SDS011;13446;50.926;5.332;2024-01-27T14:16:00;7.28;;;2.45;;
25553;SDS011;13446;50.926;5.332;2024-01-27T14:18:26;10.27;;;2.35;;
25553;SDS011;13446;50.926;5.332;2024-01-27T14:20:51;11.50;;;2.30;;
25553;SDS011;13446;50.926;5.332;2024-01-27T14:23:17;13.10;;;2.67;;
25553;SDS011;13446;50.926;5.332;2024-01-27T14:25:43;15.35;;;2.72;;
25553;SDS011;13446;50.926;5.332;2024-01-27T14:28:09;9.90;;;2.80;;
25553;SDS011;13446;50.926;5.332;2024-01-27T14:30:36;19.17;;;5.22;;
25553;SDS011;13446;50.926;5.332;2024-01-27T14:33:02;20.95;;;6.05;;
25553;SDS011;13446;50.926;5.332;2024-01-27T14:35:29;18.20;;;5.07;;
25553;SDS011;13446;50.926;5.332;2024-01-27T14:37:54;16.58;;;3.65;;